sensor_id;sensor_type;location;lat;lon;timestamp;pressure;altitude;pressure_sealevel;temperature;humidity
4767;BME280;2397;53.576;9.746;2022-10-13T00:00:27;101913.31;;;9.10;100.00
4767;BME280;2397;53.576;9.746;2022-10-13T00:02:54;101920.34;;;9.14;100.00
4767;BME280;2397;53.576;9.746;2022-10-13T00:05:20;101918.47;;;8.87;100.00
4767;BME280;2397;53.576;9.746;2022-10-13T00:07:47;101919.03;;;9.03;100.00
4767;BME280;2397;53.576;9.746;2022-10-13T00:10:13;101912.44;;;8.66;100.00
4767;BME280;2397;53.576;9.746;2022-10-13T00:12:39;101912.25;;;8.61;100.00
4767;BME280;2397;53.576;9.746;2022-10-13T00:15:07;101911.50;;;8.64;100.00
4767;BME280;2397;53.576;9.746;2022-10-13T00:17:34;101916.75;;;8.88;100.00
4767;BME280;2397;53.576;9.746;2022-10-13T00:20:05;101907.03;;;9.26;100.00
4767;BME280;2397;53.576;9.746;2022-10-13T00:22:31;101907.97;;;8.83;100.00
4767;BME280;2397;53.576;9.746;2022-10-13T00:24:58;101912.63;;;8.70;100.00
4767;BME280;2397;53.576;9.746;2022-10-13T00:27:24;101909.50;;;9.00;100.00
4767;BME280;2397;53.576;9.746;2022-10-13T00:29:51;101903.91;;;8.89;100.00
4767;BME280;2397;53.576;9.746;2022-10-13T00:32:17;101892.06;;;8.94;100.00
4767;BME280;2397;53.576;9.746;2022-10-13T00:34:44;101892.47;;;8.83;100.00
4767;BME280;2397;53.576;9.746;2022-10-13T00:37:11;101891.78;;;8.87;100.00
4767;BME280;2397;53.576;9.746;2022-10-13T00:39:37;101890.41;;;8.96;100.00
4767;BME280;2397;53.576;9.746;2022-10-13T00:42:05;101894.75;;;8.98;100.00
4767;BME280;2397;53.576;9.746;2022-10-13T00:47:47;101896.59;;;9.00;100.00
4767;BME280;2397;53.576;9.746;2022-10-13T00:50:17;101902.22;;;9.12;100.00
4767;BME280;2397;53.576;9.746;2022-10-13T00:52:46;101896.66;;;8.81;100.00
4767;BME280;2397;53.576;9.746;2022-10-13T00:55:16;101889.03;;;8.84;100.00
4767;BME280;2397;53.576;9.746;2022-10-13T00:57:47;101888.63;;;8.73;100.00
4767;BME280;2397;53.576;9.746;2022-10-13T01:00:21;101889.81;;;8.81;100.00
4767;BME280;2397;53.576;9.746;2022-10-13T01:02:48;101892.94;;;8.72;100.00
4767;BME280;2397;53.576;9.746;2022-10-13T01:05:15;101888.16;;;8.39;100.00
4767;BME280;2397;53.576;9.746;2022-10-13T01:07:42;101891.25;;;8.52;100.00
4767;BME280;2397;53.576;9.746;2022-10-13T01:10:09;101892.22;;;8.76;100.00
4767;BME280;2397;53.576;9.746;2022-10-13T01:12:47;101892.66;;;8.24;100.00
4767;BME280;2397;53.576;9.746;2022-10-13T01:15:17;101899.16;;;8.35;100.00
4767;BME280;2397;53.576;9.746;2022-10-13T01:18:12;101890.06;;;8.24;100.00
4767;BME280;2397;53.576;9.746;2022-10-13T01:23:39;101882.38;;;7.83;100.00
4767;BME280;2397;53.576;9.746;2022-10-13T01:28:58;101887.00;;;8.12;100.00
4767;BME280;2397;53.576;9.746;2022-10-13T01:31:36;101879.75;;;8.24;100.00
4767;BME280;2397;53.576;9.746;2022-10-13T01:34:18;101875.88;;;7.52;100.00
4767;BME280;2397;53.576;9.746;2022-10-13T01:39:34;101862.72;;;7.66;100.00
4767;BME280;2397;53.576;9.746;2022-10-13T01:42:07;101866.84;;;8.24;100.00
4767;BME280;2397;53.576;9.746;2022-10-13T01:44:50;101873.22;;;8.32;100.00
4767;BME280;2397;53.576;9.746;2022-10-13T01:47:19;101869.53;;;7.85;100.00
4767;BME280;2397;53.576;9.746;2022-10-13T01:49:46;101865.97;;;8.02;100.00
4767;BME280;2397;53.576;9.746;2022-10-13T01:52:17;101866.09;;;7.65;100.00
4767;BME280;2397;53.576;9.746;2022-10-13T01:54:53;101868.13;;;7.72;100.00
4767;BME280;2397;53.576;9.746;2022-10-13T01:57:35;101871.81;;;7.98;100.00
4767;BME280;2397;53.576;9.746;2022-10-13T02:00:09;101866.31;;;8.10;100.00
4767;BME280;2397;53.576;9.746;2022-10-13T02:02:42;101867.50;;;7.78;100.00
4767;BME280;2397;53.576;9.746;2022-10-13T02:05:33;101860.06;;;7.64;100.00
4767;BME280;2397;53.576;9.746;2022-10-13T02:08:23;101855.59;;;7.41;100.00
4767;BME280;2397;53.576;9.746;2022-10-13T02:10:51;101852.63;;;7.51;100.00
4767;BME280;2397;53.576;9.746;2022-10-13T02:13:23;101849.00;;;7.28;100.00
4767;BME280;2397;53.576;9.746;2022-10-13T02:15:54;101839.34;;;7.82;100.00
4767;BME280;2397;53.576;9.746;2022-10-13T02:18:35;101838.13;;;7.74;100.00
4767;BME280;2397;53.576;9.746;2022-10-13T02:21:03;101836.72;;;8.02;100.00
4767;BME280;2397;53.576;9.746;2022-10-13T02:23:29;101834.22;;;8.03;100.00
4767;BME280;2397;53.576;9.746;2022-10-13T02:25:58;101840.13;;;8.22;100.00
4767;BME280;2397;53.576;9.746;2022-10-13T02:28:26;101834.88;;;8.41;100.00
4767;BME280;2397;53.576;9.746;2022-10-13T02:30:53;101834.19;;;8.44;100.00
4767;BME280;2397;53.576;9.746;2022-10-13T02:33:19;101831.44;;;8.20;100.00
4767;BME280;2397;53.576;9.746;2022-10-13T02:35:46;101823.66;;;7.97;100.00
4767;BME280;2397;53.576;9.746;2022-10-13T02:38:12;101827.69;;;8.12;100.00
4767;BME280;2397;53.576;9.746;2022-10-13T02:40:39;101819.34;;;8.40;100.00
4767;BME280;2397;53.576;9.746;2022-10-13T02:43:05;101820.97;;;8.38;100.00
4767;BME280;2397;53.576;9.746;2022-10-13T02:45:32;101817.84;;;8.45;100.00
4767;BME280;2397;53.576;9.746;2022-10-13T02:47:58;101819.75;;;8.49;100.00
4767;BME280;2397;53.576;9.746;2022-10-13T02:50:25;101821.63;;;8.53;100.00
4767;BME280;2397;53.576;9.746;2022-10-13T02:52:51;101825.66;;;8.47;100.00
4767;BME280;2397;53.576;9.746;2022-10-13T02:55:17;101812.88;;;8.50;100.00
4767;BME280;2397;53.576;9.746;2022-10-13T02:57:44;101805.28;;;8.11;100.00
4767;BME280;2397;53.576;9.746;2022-10-13T03:00:11;101813.63;;;8.26;100.00
4767;BME280;2397;53.576;9.746;2022-10-13T03:02:38;101814.06;;;8.37;100.00
4767;BME280;2397;53.576;9.746;2022-10-13T03:05:04;101813.59;;;8.46;100.00
4767;BME280;2397;53.576;9.746;2022-10-13T03:07:30;101805.00;;;8.47;100.00
4767;BME280;2397;53.576;9.746;2022-10-13T03:09:57;101812.88;;;8.50;100.00
4767;BME280;2397;53.576;9.746;2022-10-13T03:12:24;101804.84;;;8.21;100.00
4767;BME280;2397;53.576;9.746;2022-10-13T03:14:50;101808.91;;;8.37;100.00
4767;BME280;2397;53.576;9.746;2022-10-13T03:17:16;101804.25;;;8.28;100.00
4767;BME280;2397;53.576;9.746;2022-10-13T03:19:43;101801.13;;;8.35;100.00
4767;BME280;2397;53.576;9.746;2022-10-13T03:22:09;101792.69;;;8.39;100.00
4767;BME280;2397;53.576;9.746;2022-10-13T03:24:40;101791.66;;;8.36;100.00
4767;BME280;2397;53.576;9.746;2022-10-13T03:27:06;101799.00;;;8.04;100.00
4767;BME280;2397;53.576;9.746;2022-10-13T03:29:33;101782.50;;;8.21;100.00
4767;BME280;2397;53.576;9.746;2022-10-13T03:31:59;101788.91;;;8.31;100.00
4767;BME280;2397;53.576;9.746;2022-10-13T03:34:25;101794.19;;;8.34;100.00
4767;BME280;2397;53.576;9.746;2022-10-13T03:36:52;101792.59;;;8.38;100.00
4767;BME280;2397;53.576;9.746;2022-10-13T03:39:18;101790.41;;;8.26;100.00
4767;BME280;2397;53.576;9.746;2022-10-13T03:41:45;101796.81;;;8.36;100.00
4767;BME280;2397;53.576;9.746;2022-10-13T03:44:12;101806.28;;;8.35;100.00
4767;BME280;2397;53.576;9.746;2022-10-13T03:46:38;101797.97;;;8.42;100.00
4767;BME280;2397;53.576;9.746;2022-10-13T03:49:05;101798.78;;;8.41;100.00
4767;BME280;2397;53.576;9.746;2022-10-13T03:51:32;101799.09;;;8.28;100.00
4767;BME280;2397;53.576;9.746;2022-10-13T03:53:58;101802.84;;;8.36;100.00
4767;BME280;2397;53.576;9.746;2022-10-13T03:56:26;101797.50;;;8.32;100.00
4767;BME280;2397;53.576;9.746;2022-10-13T03:58:55;101798.28;;;8.29;100.00
4767;BME280;2397;53.576;9.746;2022-10-13T04:01:25;101789.03;;;8.34;100.00
4767;BME280;2397;53.576;9.746;2022-10-13T04:03:53;101790.81;;;7.93;100.00
4767;BME280;2397;53.576;9.746;2022-10-13T04:06:21;101791.13;;;8.22;100.00
4767;BME280;2397;53.576;9.746;2022-10-13T04:08:48;101794.81;;;8.29;100.00
4767;BME280;2397;53.576;9.746;2022-10-13T04:11:15;101794.06;;;8.31;100.00
4767;BME280;2397;53.576;9.746;2022-10-13T04:13:42;101802.25;;;8.21;100.00
4767;BME280;2397;53.576;9.746;2022-10-13T04:16:14;101796.66;;;8.31;100.00
4767;BME280;2397;53.576;9.746;2022-10-13T04:18:41;101793.66;;;8.20;100.00
4767;BME280;2397;53.576;9.746;2022-10-13T04:21:13;101793.13;;;8.08;100.00
4767;BME280;2397;53.576;9.746;2022-10-13T04:23:39;101798.22;;;8.06;100.00
4767;BME280;2397;53.576;9.746;2022-10-13T04:26:14;101787.19;;;7.88;100.00
4767;BME280;2397;53.576;9.746;2022-10-13T04:28:40;101787.19;;;7.88;100.00
4767;BME280;2397;53.576;9.746;2022-10-13T04:31:07;101793.31;;;8.13;100.00
4767;BME280;2397;53.576;9.746;2022-10-13T04:33:33;101787.41;;;8.15;100.00
4767;BME280;2397;53.576;9.746;2022-10-13T04:36:05;101779.19;;;7.82;100.00
4767;BME280;2397;53.576;9.746;2022-10-13T04:38:32;101786.94;;;8.03;100.00
4767;BME280;2397;53.576;9.746;2022-10-13T04:41:01;101777.72;;;8.09;100.00
4767;BME280;2397;53.576;9.746;2022-10-13T04:43:29;101776.16;;;7.71;100.00
4767;BME280;2397;53.576;9.746;2022-10-13T04:46:03;101768.88;;;8.03;100.00
4767;BME280;2397;53.576;9.746;2022-10-13T04:48:30;101769.00;;;8.06;100.00
4767;BME280;2397;53.576;9.746;2022-10-13T04:51:01;101766.66;;;8.12;100.00
4767;BME280;2397;53.576;9.746;2022-10-13T04:53:28;101766.72;;;8.14;100.00
4767;BME280;2397;53.576;9.746;2022-10-13T04:55:55;101762.22;;;7.87;100.00
4767;BME280;2397;53.576;9.746;2022-10-13T04:58:22;101758.22;;;7.74;100.00
4767;BME280;2397;53.576;9.746;2022-10-13T05:00:48;101756.50;;;7.94;100.00
4767;BME280;2397;53.576;9.746;2022-10-13T05:03:15;101753.78;;;7.91;100.00
4767;BME280;2397;53.576;9.746;2022-10-13T05:05:42;101758.50;;;8.01;100.00
4767;BME280;2397;53.576;9.746;2022-10-13T05:08:08;101760.44;;;7.86;100.00
4767;BME280;2397;53.576;9.746;2022-10-13T05:10:34;101757.22;;;7.91;100.00
4767;BME280;2397;53.576;9.746;2022-10-13T05:13:01;101754.38;;;8.06;100.00
4767;BME280;2397;53.576;9.746;2022-10-13T05:15:28;101736.38;;;7.64;100.00
4767;BME280;2397;53.576;9.746;2022-10-13T05:17:54;101742.38;;;7.86;100.00
4767;BME280;2397;53.576;9.746;2022-10-13T05:20:20;101743.53;;;7.93;100.00
4767;BME280;2397;53.576;9.746;2022-10-13T05:22:47;101754.63;;;8.13;100.00
4767;BME280;2397;53.576;9.746;2022-10-13T05:25:13;101742.41;;;8.07;100.00
4767;BME280;2397;53.576;9.746;2022-10-13T05:27:40;101742.19;;;8.23;100.00
4767;BME280;2397;53.576;9.746;2022-10-13T05:30:07;101739.19;;;7.91;100.00
4767;BME280;2397;53.576;9.746;2022-10-13T05:32:34;101736.22;;;8.03;100.00
4767;BME280;2397;53.576;9.746;2022-10-13T05:35:01;101736.28;;;8.05;100.00
4767;BME280;2397;53.576;9.746;2022-10-13T05:37:27;101719.94;;;8.04;100.00
4767;BME280;2397;53.576;9.746;2022-10-13T05:39:53;101718.09;;;7.79;100.00
4767;BME280;2397;53.576;9.746;2022-10-13T05:42:20;101712.09;;;8.01;100.00
4767;BME280;2397;53.576;9.746;2022-10-13T05:44:47;101712.19;;;7.82;100.00
4767;BME280;2397;53.576;9.746;2022-10-13T05:47:13;101703.78;;;8.08;100.00
4767;BME280;2397;53.576;9.746;2022-10-13T05:49:40;101708.16;;;8.11;100.00
4767;BME280;2397;53.576;9.746;2022-10-13T05:52:09;101718.47;;;8.11;100.00
4767;BME280;2397;53.576;9.746;2022-10-13T05:54:40;101717.44;;;8.29;100.00
4767;BME280;2397;53.576;9.746;2022-10-13T05:59:42;101705.91;;;8.19;100.00
4767;BME280;2397;53.576;9.746;2022-10-13T06:02:13;101695.06;;;8.27;100.00
4767;BME280;2397;53.576;9.746;2022-10-13T06:04:44;101704.53;;;8.29;100.00
4767;BME280;2397;53.576;9.746;2022-10-13T06:07:11;101715.97;;;8.35;100.00
4767;BME280;2397;53.576;9.746;2022-10-13T06:09:38;101704.47;;;8.27;100.00
4767;BME280;2397;53.576;9.746;2022-10-13T06:12:06;101711.22;;;8.23;100.00
4767;BME280;2397;53.576;9.746;2022-10-13T06:14:33;101705.59;;;8.34;100.00
4767;BME280;2397;53.576;9.746;2022-10-13T06:17:00;101705.44;;;8.29;100.00
4767;BME280;2397;53.576;9.746;2022-10-13T06:19:26;101709.22;;;8.39;100.00
4767;BME280;2397;53.576;9.746;2022-10-13T06:21:53;101704.69;;;8.33;100.00
4767;BME280;2397;53.576;9.746;2022-10-13T06:24:20;101704.81;;;8.36;100.00
4767;BME280;2397;53.576;9.746;2022-10-13T06:26:46;101718.56;;;8.35;100.00
4767;BME280;2397;53.576;9.746;2022-10-13T06:29:12;101705.84;;;8.40;100.00
4767;BME280;2397;53.576;9.746;2022-10-13T06:31:39;101706.16;;;8.48;100.00
4767;BME280;2397;53.576;9.746;2022-10-13T06:34:05;101705.22;;;8.46;100.00
4767;BME280;2397;53.576;9.746;2022-10-13T06:36:32;101708.13;;;8.55;100.00
4767;BME280;2397;53.576;9.746;2022-10-13T06:38:58;101705.56;;;8.55;100.00
4767;BME280;2397;53.576;9.746;2022-10-13T06:41:25;101702.28;;;8.59;100.00
4767;BME280;2397;53.576;9.746;2022-10-13T06:43:51;101706.91;;;8.68;100.00
4767;BME280;2397;53.576;9.746;2022-10-13T06:46:18;101705.22;;;8.46;100.00
4767;BME280;2397;53.576;9.746;2022-10-13T06:48:44;101701.47;;;8.39;100.00
4767;BME280;2397;53.576;9.746;2022-10-13T06:51:10;101702.16;;;8.56;100.00
4767;BME280;2397;53.576;9.746;2022-10-13T06:53:37;101701.44;;;8.60;100.00
4767;BME280;2397;53.576;9.746;2022-10-13T06:56:05;101701.53;;;8.40;100.00
4767;BME280;2397;53.576;9.746;2022-10-13T06:58:33;101691.25;;;8.63;100.00
4767;BME280;2397;53.576;9.746;2022-10-13T07:01:00;101682.34;;;8.55;100.00
4767;BME280;2397;53.576;9.746;2022-10-13T07:03:26;101676.03;;;8.71;100.00
4767;BME280;2397;53.576;9.746;2022-10-13T07:05:53;101690.97;;;8.79;100.00
4767;BME280;2397;53.576;9.746;2022-10-13T07:08:20;101694.47;;;8.82;100.00
4767;BME280;2397;53.576;9.746;2022-10-13T07:10:46;101699.31;;;8.96;100.00
4767;BME280;2397;53.576;9.746;2022-10-13T07:13:13;101714.84;;;8.98;100.00
4767;BME280;2397;53.576;9.746;2022-10-13T07:15:40;101698.66;;;9.02;100.00
4767;BME280;2397;53.576;9.746;2022-10-13T07:18:07;101686.91;;;9.10;100.00
4767;BME280;2397;53.576;9.746;2022-10-13T07:20:33;101685.91;;;9.07;100.00
4767;BME280;2397;53.576;9.746;2022-10-13T07:23:00;101686.94;;;8.88;100.00
4767;BME280;2397;53.576;9.746;2022-10-13T07:25:27;101697.09;;;9.07;100.00
4767;BME280;2397;53.576;9.746;2022-10-13T07:27:54;101687.41;;;9.00;100.00
4767;BME280;2397;53.576;9.746;2022-10-13T07:30:21;101688.47;;;9.07;100.00
4767;BME280;2397;53.576;9.746;2022-10-13T07:32:47;101686.75;;;9.07;100.00
4767;BME280;2397;53.576;9.746;2022-10-13T07:35:14;101685.03;;;9.06;100.00
4767;BME280;2397;53.576;9.746;2022-10-13T07:37:40;101680.28;;;9.19;100.00
4767;BME280;2397;53.576;9.746;2022-10-13T07:40:07;101674.50;;;9.26;100.00
4767;BME280;2397;53.576;9.746;2022-10-13T07:42:34;101668.47;;;9.25;100.00
4767;BME280;2397;53.576;9.746;2022-10-13T07:45:00;101685.66;;;9.25;100.00
4767;BME280;2397;53.576;9.746;2022-10-13T07:47:27;101691.44;;;9.18;100.00
4767;BME280;2397;53.576;9.746;2022-10-13T07:49:54;101683.16;;;9.28;100.00
4767;BME280;2397;53.576;9.746;2022-10-13T07:52:21;101689.75;;;9.18;100.00
4767;BME280;2397;53.576;9.746;2022-10-13T07:54:49;101682.03;;;9.20;100.00
4767;BME280;2397;53.576;9.746;2022-10-13T07:57:15;101674.66;;;9.30;100.00
4767;BME280;2397;53.576;9.746;2022-10-13T07:59:41;101683.53;;;9.39;100.00
4767;BME280;2397;53.576;9.746;2022-10-13T08:02:08;101682.03;;;9.45;100.00
4767;BME280;2397;53.576;9.746;2022-10-13T08:04:36;101677.69;;;9.44;100.00
4767;BME280;2397;53.576;9.746;2022-10-13T08:07:03;101678.72;;;9.49;100.00
4767;BME280;2397;53.576;9.746;2022-10-13T08:09:31;101674.38;;;9.48;100.00
4767;BME280;2397;53.576;9.746;2022-10-13T08:11:57;101686.47;;;9.49;100.00
4767;BME280;2397;53.576;9.746;2022-10-13T08:14:27;101683.47;;;9.63;100.00
4767;BME280;2397;53.576;9.746;2022-10-13T08:16:54;101675.03;;;9.69;100.00
4767;BME280;2397;53.576;9.746;2022-10-13T08:19:21;101679.44;;;9.71;100.00
4767;BME280;2397;53.576;9.746;2022-10-13T08:21:48;101669.91;;;9.70;100.00
4767;BME280;2397;53.576;9.746;2022-10-13T08:24:25;101664.25;;;9.82;100.00
4767;BME280;2397;53.576;9.746;2022-10-13T08:26:52;101663.66;;;9.91;100.00
4767;BME280;2397;53.576;9.746;2022-10-13T08:29:18;101660.22;;;9.92;100.00
4767;BME280;2397;53.576;9.746;2022-10-13T08:31:50;101662.25;;;10.02;100.00
4767;BME280;2397;53.576;9.746;2022-10-13T08:34:17;101662.53;;;10.10;100.00
4767;BME280;2397;53.576;9.746;2022-10-13T08:36:43;101662.84;;;10.20;100.00
4767;BME280;2397;53.576;9.746;2022-10-13T08:39:10;101656.06;;;10.26;100.00
4767;BME280;2397;53.576;9.746;2022-10-13T08:41:38;101659.44;;;10.22;100.00
4767;BME280;2397;53.576;9.746;2022-10-13T08:44:15;101644.94;;;10.28;100.00
4767;BME280;2397;53.576;9.746;2022-10-13T08:47:11;101658.00;;;10.33;100.00
4767;BME280;2397;53.576;9.746;2022-10-13T08:49:41;101664.66;;;10.23;100.00
4767;BME280;2397;53.576;9.746;2022-10-13T08:52:15;101668.47;;;10.36;100.00
4767;BME280;2397;53.576;9.746;2022-10-13T08:54:44;101664.34;;;10.41;100.00
4767;BME280;2397;53.576;9.746;2022-10-13T08:57:10;101668.69;;;10.42;100.00
4767;BME280;2397;53.576;9.746;2022-10-13T08:59:37;101676.53;;;10.45;100.00
4767;BME280;2397;53.576;9.746;2022-10-13T09:02:22;101672.06;;;10.40;100.00
4767;BME280;2397;53.576;9.746;2022-10-13T09:04:51;101657.53;;;10.45;100.00
4767;BME280;2397;53.576;9.746;2022-10-13T09:07:20;101649.13;;;10.53;100.00
4767;BME280;2397;53.576;9.746;2022-10-13T09:09:51;101639.81;;;10.59;100.00
4767;BME280;2397;53.576;9.746;2022-10-13T09:12:17;101652.75;;;10.59;100.00
4767;BME280;2397;53.576;9.746;2022-10-13T09:15:04;101653.91;;;10.70;100.00
4767;BME280;2397;53.576;9.746;2022-10-13T09:17:32;101657.94;;;10.59;100.00
4767;BME280;2397;53.576;9.746;2022-10-13T09:20:18;101659.00;;;10.67;100.00
4767;BME280;2397;53.576;9.746;2022-10-13T09:23:00;101651.41;;;10.73;100.00
4767;BME280;2397;53.576;9.746;2022-10-13T09:25:28;101664.44;;;10.76;100.00
4767;BME280;2397;53.576;9.746;2022-10-13T09:27:57;101664.63;;;10.82;100.00
4767;BME280;2397;53.576;9.746;2022-10-13T09:35:46;101657.31;;;11.01;100.00
4767;BME280;2397;53.576;9.746;2022-10-13T09:38:19;101660.59;;;10.94;100.00
4767;BME280;2397;53.576;9.746;2022-10-13T09:41:11;101658.06;;;10.97;100.00
4767;BME280;2397;53.576;9.746;2022-10-13T09:46:17;101643.78;;;11.11;100.00
4767;BME280;2397;53.576;9.746;2022-10-13T09:48:48;101642.09;;;11.13;100.00
4767;BME280;2397;53.576;9.746;2022-10-13T09:51:29;101632.25;;;11.00;100.00
4767;BME280;2397;53.576;9.746;2022-10-13T09:53:57;101633.84;;;10.95;100.00
4767;BME280;2397;53.576;9.746;2022-10-13T09:56:41;101636.56;;;10.99;100.00
4767;BME280;2397;53.576;9.746;2022-10-13T09:59:31;101633.19;;;11.02;100.00
4767;BME280;2397;53.576;9.746;2022-10-13T10:02:03;101630.81;;;11.11;100.00
4767;BME280;2397;53.576;9.746;2022-10-13T10:04:45;101624.78;;;11.11;100.00
4767;BME280;2397;53.576;9.746;2022-10-13T10:07:16;101618.94;;;11.19;100.00
4767;BME280;2397;53.576;9.746;2022-10-13T10:09:46;101614.00;;;11.29;100.00
4767;BME280;2397;53.576;9.746;2022-10-13T10:12:19;101614.88;;;11.31;100.00
4767;BME280;2397;53.576;9.746;2022-10-13T10:14:52;101612.53;;;11.40;100.00
4767;BME280;2397;53.576;9.746;2022-10-13T10:17:30;101626.34;;;11.39;100.00
4767;BME280;2397;53.576;9.746;2022-10-13T10:31:49;101606.63;;;11.47;100.00
4767;BME280;2397;53.576;9.746;2022-10-13T10:37:20;101606.00;;;11.57;100.00
4767;BME280;2397;53.576;9.746;2022-10-13T10:42:42;101590.44;;;11.57;100.00
4767;BME280;2397;53.576;9.746;2022-10-13T10:45:21;101587.16;;;11.65;100.00
4767;BME280;2397;53.576;9.746;2022-10-13T10:47:54;101584.06;;;11.81;100.00
4767;BME280;2397;53.576;9.746;2022-10-13T10:50:22;101571.31;;;11.90;100.00
4767;BME280;2397;53.576;9.746;2022-10-13T10:52:54;101583.16;;;12.17;100.00
4767;BME280;2397;53.576;9.746;2022-10-13T10:55:27;101580.19;;;12.43;100.00
4767;BME280;2397;53.576;9.746;2022-10-13T10:58:03;101583.09;;;12.58;100.00
4767;BME280;2397;53.576;9.746;2022-10-13T11:00:40;101574.03;;;12.85;100.00
4767;BME280;2397;53.576;9.746;2022-10-13T11:03:36;101561.44;;;13.10;100.00
4767;BME280;2397;53.576;9.746;2022-10-13T11:08:40;101555.34;;;13.08;100.00
4767;BME280;2397;53.576;9.746;2022-10-13T11:11:28;101556.47;;;13.24;100.00
4767;BME280;2397;53.576;9.746;2022-10-13T11:14:20;101559.50;;;13.51;100.00
4767;BME280;2397;53.576;9.746;2022-10-13T11:17:07;101547.69;;;13.77;100.00
4767;BME280;2397;53.576;9.746;2022-10-13T11:19:37;101539.13;;;13.84;100.00
4767;BME280;2397;53.576;9.746;2022-10-13T11:37:25;101543.69;;;13.38;100.00
4767;BME280;2397;53.576;9.746;2022-10-13T11:40:14;101545.47;;;13.39;100.00
4767;BME280;2397;53.576;9.746;2022-10-13T11:43:15;101539.41;;;13.41;100.00
4767;BME280;2397;53.576;9.746;2022-10-13T11:59:26;101542.00;;;13.40;100.00
4767;BME280;2397;53.576;9.746;2022-10-13T12:02:10;101542.88;;;13.39;100.00
4767;BME280;2397;53.576;9.746;2022-10-13T12:04:40;101529.81;;;13.35;100.00
4767;BME280;2397;53.576;9.746;2022-10-13T12:07:14;101525.66;;;13.48;100.00
4767;BME280;2397;53.576;9.746;2022-10-13T12:09:49;101523.22;;;13.61;100.00
4767;BME280;2397;53.576;9.746;2022-10-13T12:12:18;101521.56;;;13.67;100.00
4767;BME280;2397;53.576;9.746;2022-10-13T12:14:52;101507.81;;;13.78;100.00
4767;BME280;2397;53.576;9.746;2022-10-13T12:17:27;101500.88;;;13.77;100.00
4767;BME280;2397;53.576;9.746;2022-10-13T12:19:58;101501.75;;;13.76;100.00
4767;BME280;2397;53.576;9.746;2022-10-13T12:22:25;101499.97;;;13.75;100.00
4767;BME280;2397;53.576;9.746;2022-10-13T12:25:03;101500.72;;;13.64;100.00
4767;BME280;2397;53.576;9.746;2022-10-13T12:30:25;101508.44;;;13.58;100.00
4767;BME280;2397;53.576;9.746;2022-10-13T12:32:55;101511.06;;;13.58;100.00
4767;BME280;2397;53.576;9.746;2022-10-13T12:35:28;101510.94;;;13.49;100.00
4767;BME280;2397;53.576;9.746;2022-10-13T12:37:56;101503.94;;;13.46;100.00
4767;BME280;2397;53.576;9.746;2022-10-13T12:40:24;101505.72;;;13.49;100.00
4767;BME280;2397;53.576;9.746;2022-10-13T12:42:50;101504.91;;;13.53;100.00
4767;BME280;2397;53.576;9.746;2022-10-13T12:45:19;101493.75;;;13.63;100.00
4767;BME280;2397;53.576;9.746;2022-10-13T12:47:51;101493.88;;;13.69;100.00
4767;BME280;2397;53.576;9.746;2022-10-13T12:53:13;101499.75;;;13.56;100.00
4767;BME280;2397;53.576;9.746;2022-10-13T12:55:57;101492.81;;;13.55;100.00
4767;BME280;2397;53.576;9.746;2022-10-13T12:58:32;101492.00;;;13.59;100.00
4767;BME280;2397;53.576;9.746;2022-10-13T13:03:40;101491.13;;;13.62;100.00
4767;BME280;2397;53.576;9.746;2022-10-13T13:06:10;101491.97;;;13.56;100.00
4767;BME280;2397;53.576;9.746;2022-10-13T13:08:45;101492.00;;;13.59;100.00
4767;BME280;2397;53.576;9.746;2022-10-13T13:11:35;101489.41;;;13.61;100.00
4767;BME280;2397;53.576;9.746;2022-10-13T13:17:11;101486.78;;;13.59;100.00
4767;BME280;2397;53.576;9.746;2022-10-13T13:19:41;101483.34;;;13.63;100.00
4767;BME280;2397;53.576;9.746;2022-10-13T13:22:07;101486.03;;;13.68;100.00
4767;BME280;2397;53.576;9.746;2022-10-13T13:24:34;101490.41;;;13.74;100.00
4767;BME280;2397;53.576;9.746;2022-10-13T13:27:25;101484.38;;;13.76;100.00
4767;BME280;2397;53.576;9.746;2022-10-13T13:29:53;101484.34;;;13.73;100.00
4767;BME280;2397;53.576;9.746;2022-10-13T13:32:22;101488.72;;;13.76;100.00
4767;BME280;2397;53.576;9.746;2022-10-13T13:34:49;101493.00;;;13.70;100.00
4767;BME280;2397;53.576;9.746;2022-10-13T13:37:48;101485.09;;;13.64;100.00
4767;BME280;2397;53.576;9.746;2022-10-13T13:40:21;101483.50;;;13.73;100.00
4767;BME280;2397;53.576;9.746;2022-10-13T13:42:48;101486.06;;;13.69;100.00
4767;BME280;2397;53.576;9.746;2022-10-13T13:45:16;101486.03;;;13.66;100.00
4767;BME280;2397;53.576;9.746;2022-10-13T13:47:44;101488.63;;;13.66;100.00
4767;BME280;2397;53.576;9.746;2022-10-13T13:50:25;101491.19;;;13.65;100.00
4767;BME280;2397;53.576;9.746;2022-10-13T13:52:52;101489.50;;;13.67;100.00
4767;BME280;2397;53.576;9.746;2022-10-13T13:55:19;101483.41;;;13.66;100.00
4767;BME280;2397;53.576;9.746;2022-10-13T13:57:45;101480.72;;;13.60;100.00
4767;BME280;2397;53.576;9.746;2022-10-13T14:00:13;101478.16;;;13.63;100.00
4767;BME280;2397;53.576;9.746;2022-10-13T14:02:41;101473.91;;;13.68;100.00
4767;BME280;2397;53.576;9.746;2022-10-13T14:05:09;101466.13;;;13.72;100.00
4767;BME280;2397;53.576;9.746;2022-10-13T14:07:36;101473.97;;;13.76;100.00
4767;BME280;2397;53.576;9.746;2022-10-13T14:10:03;101473.94;;;13.73;100.00
4767;BME280;2397;53.576;9.746;2022-10-13T14:12:31;101481.78;;;13.75;100.00
4767;BME280;2397;53.576;9.746;2022-10-13T14:14:57;101476.50;;;13.68;100.00
4767;BME280;2397;53.576;9.746;2022-10-13T14:17:27;101474.75;;;13.67;100.00
4767;BME280;2397;53.576;9.746;2022-10-13T14:19:53;101471.41;;;13.78;100.00
4767;BME280;2397;53.576;9.746;2022-10-13T14:22:20;101472.22;;;13.75;100.00
4767;BME280;2397;53.576;9.746;2022-10-13T14:24:47;101469.72;;;13.80;100.00
4767;BME280;2397;53.576;9.746;2022-10-13T14:27:14;101465.38;;;13.80;100.00
4767;BME280;2397;53.576;9.746;2022-10-13T14:29:40;101461.00;;;13.79;100.00
4767;BME280;2397;53.576;9.746;2022-10-13T14:32:07;101456.69;;;13.80;100.00
4767;BME280;2397;53.576;9.746;2022-10-13T14:34:33;101457.53;;;13.79;100.00
4767;BME280;2397;53.576;9.746;2022-10-13T14:36:59;101457.50;;;13.76;100.00
4767;BME280;2397;53.576;9.746;2022-10-13T14:39:26;101461.00;;;13.78;100.00
4767;BME280;2397;53.576;9.746;2022-10-13T14:41:52;101468.75;;;13.73;100.00
4767;BME280;2397;53.576;9.746;2022-10-13T14:44:18;101467.00;;;13.72;100.00